createdAt,value
2018-12-25T00:02:09.664Z,4.73
2018-12-25T00:04:37.957Z,5.17
2018-12-25T00:07:06.218Z,5.10
2018-12-25T00:09:34.507Z,5.57
2018-12-25T00:12:02.770Z,4.63
2018-12-25T00:14:30.977Z,5.93
2018-12-25T00:16:59.170Z,5.10
2018-12-25T00:19:27.458Z,5.30
2018-12-25T00:21:55.730Z,5.40
2018-12-25T00:24:23.938Z,5.13
2018-12-25T00:26:52.201Z,6.30
2018-12-25T00:29:20.418Z,5.60
2018-12-25T00:31:48.677Z,5.60
2018-12-25T00:34:16.889Z,5.60
2018-12-25T00:36:45.077Z,5.17
2018-12-25T00:39:13.288Z,5.00
2018-12-25T00:41:41.477Z,6.80
2018-12-25T00:44:09.745Z,5.50
2018-12-25T00:46:38.034Z,4.90
2018-12-25T00:49:14.562Z,5.40
2018-12-25T00:51:36.237Z,5.50
2018-12-25T00:54:04.507Z,5.93
2018-12-25T00:56:32.793Z,5.70
2018-12-25T00:59:01.001Z,5.90
2018-12-25T01:01:29.294Z,5.40
2018-12-25T01:03:57.481Z,5.47
2018-12-25T01:06:25.698Z,5.03
2018-12-25T01:08:53.971Z,5.20
2018-12-25T01:11:22.253Z,5.87
2018-12-25T01:13:50.442Z,5.70
2018-12-25T01:16:18.726Z,5.00
2018-12-25T01:18:46.995Z,5.63
2018-12-25T01:21:15.277Z,5.40
2018-12-25T01:23:43.467Z,6.40
2018-12-25T01:26:11.754Z,6.30
2018-12-25T01:28:40.087Z,5.50
2018-12-25T01:31:08.376Z,6.00
2018-12-25T01:33:36.637Z,5.77
2018-12-25T01:36:04.921Z,5.47
2018-12-25T01:38:33.187Z,5.50
2018-12-25T01:41:01.470Z,6.10
2018-12-25T01:43:29.734Z,5.43
2018-12-25T01:45:58.024Z,5.33
2018-12-25T01:48:26.277Z,6.27
2018-12-25T01:50:54.490Z,6.27
2018-12-25T01:53:22.749Z,6.30
2018-12-25T01:55:50.957Z,5.67
2018-12-25T01:58:19.226Z,5.77
2018-12-25T02:00:47.493Z,6.27
2018-12-25T02:03:15.778Z,5.77
2018-12-25T02:05:43.973Z,5.70
2018-12-25T02:08:12.182Z,5.77
2018-12-25T02:10:40.455Z,6.17
2018-12-25T02:13:08.738Z,5.60
2018-12-25T02:15:36.930Z,5.53
2018-12-25T02:18:05.138Z,6.10
2018-12-25T02:20:33.403Z,5.13
2018-12-25T02:23:01.688Z,6.30
2018-12-25T02:25:29.958Z,5.90
2018-12-25T02:27:58.170Z,5.40
2018-12-25T02:30:26.355Z,5.10
2018-12-25T02:32:54.574Z,6.70
2018-12-25T02:35:22.939Z,6.20
2018-12-25T02:37:51.228Z,6.00
2018-12-25T02:40:19.493Z,6.10
2018-12-25T02:42:47.778Z,5.83
2018-12-25T02:45:15.971Z,6.07
2018-12-25T02:47:44.251Z,6.80
2018-12-25T02:50:12.510Z,6.43
2018-12-25T02:52:40.797Z,6.50
2018-12-25T02:55:08.994Z,6.10
2018-12-25T02:57:37.278Z,6.50
2018-12-25T03:00:06.407Z,6.40
2018-12-25T03:02:34.694Z,7.10
2018-12-25T03:05:03.119Z,5.90
2018-12-25T03:07:31.334Z,6.07
2018-12-25T03:09:59.521Z,5.90
2018-12-25T03:12:27.736Z,6.53
2018-12-25T03:14:55.990Z,6.40
2018-12-25T03:17:24.259Z,6.70
2018-12-25T03:19:59.827Z,6.47
2018-12-25T03:22:22.455Z,6.90
2018-12-25T03:24:50.747Z,6.70
2018-12-25T03:27:19.006Z,6.90
2018-12-25T03:29:47.296Z,6.90
2018-12-25T03:32:15.567Z,8.40
2018-12-25T03:34:43.845Z,7.37
2018-12-25T03:37:12.103Z,7.40
2018-12-25T03:39:40.389Z,6.37
2018-12-25T03:42:08.647Z,6.80
2018-12-25T03:44:36.932Z,6.60
2018-12-25T03:47:05.195Z,6.70
2018-12-25T03:49:33.483Z,5.97
2018-12-25T03:52:01.751Z,6.17
2018-12-25T03:54:30.034Z,6.40
2018-12-25T03:56:58.296Z,6.30
2018-12-25T03:59:26.580Z,6.97
2018-12-25T04:01:54.848Z,6.13
2018-12-25T04:04:23.131Z,6.10
2018-12-25T04:06:51.397Z,5.87
2018-12-25T04:09:19.686Z,6.60
2018-12-25T04:11:47.950Z,6.43
2018-12-25T04:14:16.235Z,7.30
2018-12-25T04:16:44.510Z,6.50
2018-12-25T04:19:12.800Z,6.80
2018-12-25T04:21:41.061Z,6.97
2018-12-25T04:24:09.349Z,7.60
2018-12-25T04:26:37.613Z,6.90
2018-12-25T04:29:05.823Z,6.87
2018-12-25T04:31:34.087Z,6.40
2018-12-25T04:34:02.374Z,6.60
2018-12-25T04:36:30.571Z,6.83
2018-12-25T04:38:58.839Z,6.80
2018-12-25T04:41:27.134Z,6.87
2018-12-25T04:43:55.333Z,7.10
2018-12-25T04:46:23.550Z,6.23
2018-12-25T04:48:51.911Z,6.20
2018-12-25T04:51:20.201Z,6.43
2018-12-25T04:53:48.468Z,6.77
2018-12-25T04:56:16.755Z,5.83
2018-12-25T04:58:45.014Z,6.90
2018-12-25T05:01:13.297Z,6.27
2018-12-25T05:03:41.570Z,6.30
2018-12-25T05:06:09.782Z,6.27
2018-12-25T05:08:38.045Z,6.73
2018-12-25T05:11:06.257Z,7.10
2018-12-25T05:13:34.454Z,6.20
2018-12-25T05:16:02.705Z,6.50
2018-12-25T05:18:30.935Z,7.33
2018-12-25T05:20:59.222Z,6.60
2018-12-25T05:23:27.481Z,6.90
2018-12-25T05:25:55.694Z,6.67
2018-12-25T05:28:23.882Z,6.90
2018-12-25T05:30:52.090Z,7.63
2018-12-25T05:33:20.354Z,7.00
2018-12-25T05:35:48.638Z,6.93
2018-12-25T05:38:16.913Z,7.40
2018-12-25T05:40:45.129Z,7.23
2018-12-25T05:43:13.322Z,7.77
2018-12-25T05:45:41.617Z,7.30
2018-12-25T05:48:09.881Z,7.40
2018-12-25T05:50:46.421Z,7.33
2018-12-25T05:53:08.011Z,7.17
2018-12-25T05:55:36.274Z,6.73
2018-12-25T05:58:04.563Z,6.87
2018-12-25T06:00:32.825Z,7.30
2018-12-25T06:03:01.113Z,6.87
2018-12-25T06:05:29.379Z,8.23
2018-12-25T06:07:57.589Z,6.90
2018-12-25T06:10:25.786Z,7.60
2018-12-25T06:12:54.069Z,8.17
2018-12-25T06:15:22.329Z,6.87
2018-12-25T06:17:50.543Z,7.60
2018-12-25T06:20:18.814Z,8.13
2018-12-25T06:22:47.021Z,7.20
2018-12-25T06:25:15.297Z,7.67
2018-12-25T06:27:43.581Z,7.10
2018-12-25T06:30:11.925Z,8.80
2018-12-25T06:32:40.141Z,8.40
2018-12-25T06:35:08.410Z,8.03
2018-12-25T06:37:36.695Z,7.37
2018-12-25T06:40:05.821Z,8.00
2018-12-25T06:42:34.038Z,8.40
2018-12-25T06:45:02.307Z,7.80
2018-12-25T06:47:30.594Z,7.30
2018-12-25T06:49:58.866Z,8.50
2018-12-25T06:52:27.073Z,7.63
2018-12-25T06:54:55.338Z,8.00
2018-12-25T06:57:23.627Z,8.47
2018-12-25T06:59:51.825Z,8.77
2018-12-25T07:02:20.110Z,8.10
2018-12-25T07:04:48.306Z,8.27
2018-12-25T07:07:16.524Z,8.17
2018-12-25T07:09:44.797Z,8.40
2018-12-25T07:12:12.994Z,7.97
2018-12-25T07:14:41.278Z,9.03
2018-12-25T07:17:09.572Z,8.20
2018-12-25T07:19:37.845Z,8.50
2018-12-25T07:22:06.045Z,8.30
2018-12-25T07:24:34.330Z,8.23
2018-12-25T07:27:02.529Z,7.90
2018-12-25T07:29:30.814Z,8.97
2018-12-25T07:31:59.005Z,8.97
2018-12-25T07:34:27.222Z,9.47
2018-12-25T07:36:55.494Z,8.50
2018-12-25T07:39:23.706Z,9.80
2018-12-25T07:41:51.903Z,9.20
2018-12-25T07:44:20.123Z,7.87
2018-12-25T07:46:48.384Z,9.07
2018-12-25T07:49:16.607Z,10.07
2018-12-25T07:51:44.878Z,9.30
2018-12-25T07:54:13.161Z,8.97
2018-12-25T07:56:41.433Z,9.60
2018-12-25T07:59:09.642Z,9.63
2018-12-25T08:01:37.837Z,8.93
2018-12-25T08:04:06.121Z,8.80
2018-12-25T08:06:34.322Z,10.30
2018-12-25T08:09:02.710Z,9.67
2018-12-25T08:11:30.903Z,9.57
2018-12-25T08:13:59.194Z,9.80
2018-12-25T08:16:27.473Z,9.37
2018-12-25T08:18:55.766Z,8.30
2018-12-25T08:21:29.260Z,9.90
2018-12-25T08:23:53.958Z,8.93
2018-12-25T08:26:22.222Z,9.00
2018-12-25T08:28:50.514Z,9.83
2018-12-25T08:31:18.706Z,9.27
2018-12-25T08:33:46.918Z,9.90
2018-12-25T08:36:15.116Z,10.90
2018-12-25T08:38:43.414Z,10.73
2018-12-25T08:41:11.683Z,9.70
2018-12-25T08:43:39.949Z,10.07
2018-12-25T08:46:08.165Z,11.13
2018-12-25T08:48:36.373Z,10.30
2018-12-25T08:51:04.657Z,13.10
2018-12-25T08:53:32.929Z,11.20
2018-12-25T08:56:01.223Z,9.47
2018-12-25T08:58:29.496Z,9.77
2018-12-25T09:00:57.790Z,13.10
2018-12-25T09:03:26.058Z,10.40
2018-12-25T09:05:54.278Z,11.10
2018-12-25T09:08:22.546Z,11.50
2018-12-25T09:10:50.766Z,10.97
2018-12-25T09:13:18.963Z,13.03
2018-12-25T09:15:47.250Z,10.47
2018-12-25T09:18:16.489Z,11.23
2018-12-25T09:20:44.852Z,10.70
2018-12-25T09:23:13.121Z,11.03
2018-12-25T09:25:41.410Z,11.30
2018-12-25T09:28:09.605Z,11.43
2018-12-25T09:30:37.902Z,12.23
2018-12-25T09:33:06.166Z,11.53
2018-12-25T09:35:34.391Z,11.13
2018-12-25T09:38:02.667Z,10.40
2018-12-25T09:40:30.991Z,11.17
2018-12-25T09:42:59.234Z,10.73
2018-12-25T09:45:27.530Z,10.90
2018-12-25T09:47:55.797Z,12.87
2018-12-25T09:50:24.089Z,11.10
2018-12-25T09:52:52.277Z,9.00
2018-12-25T09:55:20.573Z,7.20
2018-12-25T09:57:48.870Z,11.33
2018-12-25T10:00:17.162Z,10.67
2018-12-25T10:02:45.362Z,12.80
2018-12-25T10:05:13.580Z,9.87
2018-12-25T10:07:41.845Z,19.03
2018-12-25T10:10:10.049Z,20.50
2018-12-25T10:12:38.342Z,11.43
2018-12-25T10:15:06.919Z,11.00
2018-12-25T10:17:35.202Z,9.90
2018-12-25T10:20:03.463Z,11.60
2018-12-25T10:22:31.754Z,10.43
2018-12-25T10:25:00.024Z,23.27
2018-12-25T10:27:28.322Z,13.87
2018-12-25T10:29:56.598Z,21.20
2018-12-25T10:32:24.896Z,16.30
2018-12-25T10:34:53.178Z,14.30
2018-12-25T10:37:21.484Z,13.27
2018-12-25T10:39:49.737Z,12.70
2018-12-25T10:42:17.970Z,13.73
2018-12-25T10:44:46.242Z,12.40
2018-12-25T10:47:14.461Z,12.73
2018-12-25T10:49:42.738Z,12.57
2018-12-25T10:52:11.728Z,13.70
2018-12-25T10:54:40.298Z,11.50
2018-12-25T10:57:08.585Z,12.30
2018-12-25T10:59:36.787Z,13.50
2018-12-25T11:02:05.138Z,13.23
2018-12-25T11:04:33.414Z,12.00
2018-12-25T11:07:01.701Z,13.80
2018-12-25T11:09:29.898Z,13.83
2018-12-25T11:11:58.114Z,12.73
2018-12-25T11:14:26.389Z,11.83
2018-12-25T11:16:54.608Z,12.10
2018-12-25T11:19:22.793Z,12.77
2018-12-25T11:21:51.012Z,12.70
2018-12-25T11:24:19.291Z,13.43
2018-12-25T11:26:47.583Z,14.03
2018-12-25T11:29:15.846Z,11.50
2018-12-25T11:31:44.047Z,12.03
2018-12-25T11:34:12.330Z,11.30
2018-12-25T11:36:40.529Z,12.23
2018-12-25T11:39:08.746Z,13.07
2018-12-25T11:41:37.051Z,12.57
2018-12-25T11:44:05.305Z,12.40
2018-12-25T11:46:33.503Z,14.53
2018-12-25T11:49:01.795Z,12.80
2018-12-25T11:51:30.061Z,11.33
2018-12-25T11:53:58.296Z,11.80
2018-12-25T11:56:26.571Z,13.70
2018-12-25T11:58:54.871Z,12.23
2018-12-25T12:01:23.150Z,11.43
2018-12-25T12:03:51.561Z,10.30
2018-12-25T12:06:19.766Z,11.90
2018-12-25T12:08:48.864Z,12.00
2018-12-25T12:11:17.135Z,11.00
2018-12-25T12:13:45.449Z,10.30
2018-12-25T12:16:13.705Z,12.10
2018-12-25T12:18:41.998Z,12.63
2018-12-25T12:21:10.265Z,11.90
2018-12-25T12:23:38.486Z,11.10
2018-12-25T12:26:06.749Z,11.30
2018-12-25T12:28:34.968Z,11.20
2018-12-25T12:31:03.248Z,11.23
2018-12-25T12:33:31.539Z,10.57
2018-12-25T12:35:59.806Z,9.57
2018-12-25T12:38:28.030Z,8.83
2018-12-25T12:40:56.293Z,9.17
2018-12-25T12:43:24.505Z,10.70
2018-12-25T12:45:52.695Z,10.30
2018-12-25T12:48:20.999Z,11.20
2018-12-25T12:50:49.264Z,9.30
2018-12-25T12:53:17.546Z,9.03
2018-12-25T12:55:45.818Z,10.60
2018-12-25T12:58:14.088Z,9.40
2018-12-25T13:00:42.374Z,9.87
2018-12-25T13:03:10.569Z,9.60
2018-12-25T13:05:38.854Z,9.70
2018-12-25T13:08:07.127Z,9.40
2018-12-25T13:10:35.410Z,9.07
2018-12-25T13:13:03.678Z,9.50
2018-12-25T13:15:31.958Z,8.70
2018-12-25T13:18:00.146Z,8.40
2018-12-25T13:20:28.378Z,10.37
2018-12-25T13:22:56.562Z,8.43
2018-12-25T13:25:24.846Z,8.27
2018-12-25T13:27:53.110Z,8.93
2018-12-25T13:30:21.433Z,11.07
2018-12-25T13:32:49.697Z,10.30
2018-12-25T13:35:17.918Z,9.70
2018-12-25T13:37:46.178Z,9.13
2018-12-25T13:40:14.386Z,9.60
2018-12-25T13:42:42.653Z,10.67
2018-12-25T13:45:10.866Z,9.10
2018-12-25T13:47:39.053Z,10.37
2018-12-25T13:50:08.137Z,10.03
2018-12-25T13:52:36.402Z,9.10
2018-12-25T13:55:04.959Z,10.10
2018-12-25T13:57:33.221Z,8.60
2018-12-25T14:00:01.430Z,11.57
2018-12-25T14:02:29.744Z,9.80
2018-12-25T14:04:57.982Z,8.47
2018-12-25T14:07:26.170Z,9.10
2018-12-25T14:09:54.458Z,11.67
2018-12-25T14:12:23.518Z,13.40
2018-12-25T14:14:51.805Z,9.47
2018-12-25T14:17:19.994Z,8.80
2018-12-25T14:19:48.282Z,8.43
2018-12-25T14:22:16.474Z,8.97
2018-12-25T14:24:44.686Z,9.97
2018-12-25T14:27:12.949Z,9.83
2018-12-25T14:29:41.165Z,9.27
2018-12-25T14:32:09.430Z,10.10
2018-12-25T14:34:37.620Z,9.70
2018-12-25T14:37:05.911Z,9.60
2018-12-25T14:39:34.246Z,12.23
2018-12-25T14:42:02.530Z,11.27
2018-12-25T14:44:30.799Z,10.30
2018-12-25T14:46:59.083Z,9.50
2018-12-25T14:49:27.350Z,9.30
2018-12-25T14:51:55.559Z,9.57
2018-12-25T14:54:23.847Z,10.20
2018-12-25T14:56:52.142Z,9.10
2018-12-25T14:59:20.403Z,9.30
2018-12-25T15:01:48.681Z,10.83
2018-12-25T15:04:16.882Z,10.60
2018-12-25T15:06:45.162Z,11.07
2018-12-25T15:09:13.362Z,10.30
2018-12-25T15:11:41.737Z,11.60
2018-12-25T15:14:09.948Z,10.37
2018-12-25T15:16:38.234Z,12.03
2018-12-25T15:19:06.502Z,11.60
2018-12-25T15:21:34.785Z,11.60
2018-12-25T15:24:02.983Z,10.70
2018-12-25T15:26:31.275Z,10.93
2018-12-25T15:28:59.537Z,12.10
2018-12-25T15:31:27.768Z,12.27
2018-12-25T15:33:56.029Z,10.77
2018-12-25T15:36:24.241Z,12.80
2018-12-25T15:38:52.438Z,10.03
2018-12-25T15:41:20.665Z,11.33
2018-12-25T15:43:48.931Z,11.07
2018-12-25T15:46:17.141Z,11.23
2018-12-25T15:48:45.338Z,12.77
2018-12-25T15:51:13.635Z,11.90
2018-12-25T15:53:41.907Z,12.17
2018-12-25T15:56:10.122Z,10.17
2018-12-25T15:58:38.313Z,11.63
2018-12-25T16:01:06.528Z,14.13
2018-12-25T16:03:34.794Z,12.63
2018-12-25T16:06:03.014Z,12.10
2018-12-25T16:08:31.211Z,11.47
2018-12-25T16:10:59.484Z,11.23
2018-12-25T16:13:27.774Z,12.00
2018-12-25T16:15:56.048Z,11.50
2018-12-25T16:18:24.277Z,12.13
2018-12-25T16:20:52.541Z,12.70
2018-12-25T16:23:20.768Z,11.73
2018-12-25T16:25:49.034Z,11.73
2018-12-25T16:28:17.259Z,12.20
2018-12-25T16:30:45.542Z,12.27
2018-12-25T16:33:13.825Z,12.77
2018-12-25T16:35:42.026Z,12.93
2018-12-25T16:38:10.322Z,11.40
2018-12-25T16:40:38.526Z,12.37
2018-12-25T16:43:06.817Z,11.97
2018-12-25T16:45:35.023Z,14.20
2018-12-25T16:48:03.323Z,12.87
2018-12-25T16:50:31.586Z,13.87
2018-12-25T16:52:59.810Z,13.27
2018-12-25T16:55:28.092Z,12.50
2018-12-25T16:57:56.377Z,13.10
2018-12-25T17:00:24.587Z,11.80
2018-12-25T17:02:52.878Z,13.00
2018-12-25T17:05:21.075Z,13.50
2018-12-25T17:07:49.290Z,11.80
2018-12-25T17:10:17.498Z,13.10
2018-12-25T17:12:45.790Z,12.63
2018-12-25T17:15:13.978Z,13.80
2018-12-25T17:17:42.207Z,13.30
2018-12-25T17:20:10.478Z,12.43
2018-12-25T17:22:38.770Z,12.53
2018-12-25T17:25:06.966Z,13.77
2018-12-25T17:27:35.254Z,13.60
2018-12-25T17:30:03.445Z,12.37
2018-12-25T17:32:31.644Z,12.20
2018-12-25T17:34:59.870Z,11.97
2018-12-25T17:37:29.504Z,13.43
2018-12-25T17:39:57.838Z,13.30
2018-12-25T17:42:26.111Z,12.70
2018-12-25T17:44:54.408Z,12.27
2018-12-25T17:47:22.678Z,13.67
2018-12-25T17:49:51.266Z,13.03
2018-12-25T17:52:19.538Z,14.80
2018-12-25T17:54:47.834Z,13.53
2018-12-25T17:57:16.105Z,14.63
2018-12-25T17:59:44.398Z,13.80
2018-12-25T18:02:12.674Z,11.93
2018-12-25T18:04:40.972Z,13.80
2018-12-25T18:07:09.245Z,13.20
2018-12-25T18:09:37.469Z,12.37
2018-12-25T18:12:05.747Z,14.47
2018-12-25T18:14:34.033Z,13.93
2018-12-25T18:17:02.407Z,14.07
2018-12-25T18:19:30.702Z,13.80
2018-12-25T18:21:58.966Z,14.50
2018-12-25T18:24:27.185Z,14.37
2018-12-25T18:26:55.490Z,14.70
2018-12-25T18:29:23.785Z,14.10
2018-12-25T18:31:51.977Z,15.83
2018-12-25T18:34:20.197Z,15.73
2018-12-25T18:36:48.392Z,13.77
2018-12-25T18:39:16.618Z,13.90
2018-12-25T18:41:44.889Z,15.40
2018-12-25T18:44:13.186Z,14.70
2018-12-25T18:46:43.403Z,15.47
2018-12-25T18:49:11.394Z,14.73
2018-12-25T18:51:39.603Z,16.70
2018-12-25T18:54:07.914Z,15.43
2018-12-25T18:56:36.119Z,14.50
2018-12-25T18:59:04.391Z,14.03
2018-12-25T19:01:32.683Z,19.33
2018-12-25T19:04:00.877Z,16.63
2018-12-25T19:06:29.101Z,13.80
2018-12-25T19:08:57.366Z,17.17
2018-12-25T19:11:25.661Z,17.00
2018-12-25T19:13:53.934Z,18.57
2018-12-25T19:16:22.225Z,15.60
2018-12-25T19:18:50.426Z,16.67
2018-12-25T19:21:18.642Z,15.27
2018-12-25T19:23:48.578Z,14.13
2018-12-25T19:26:16.790Z,14.60
2018-12-25T19:28:45.012Z,15.60
2018-12-25T19:31:13.281Z,14.30
2018-12-25T19:33:41.478Z,26.47
2018-12-25T19:36:09.771Z,16.03
2018-12-25T19:38:38.046Z,14.90
2018-12-25T19:41:06.425Z,15.83
2018-12-25T19:43:34.710Z,15.50
2018-12-25T19:46:03.018Z,15.03
2018-12-25T19:48:31.289Z,14.40
2018-12-25T19:50:59.582Z,14.73
2018-12-25T19:53:27.845Z,14.50
2018-12-25T19:55:56.061Z,14.03
2018-12-25T19:58:24.430Z,15.17
2018-12-25T20:00:52.719Z,16.00
2018-12-25T20:03:20.987Z,15.30
2018-12-25T20:05:53.795Z,16.97
2018-12-25T20:08:40.232Z,18.10
2018-12-25T20:11:12.969Z,18.20
2018-12-25T20:13:58.937Z,19.73
2018-12-25T20:16:37.579Z,17.93
2018-12-25T20:19:07.384Z,17.53
2018-12-25T20:21:55.068Z,18.97
2018-12-25T20:24:27.862Z,16.83
2018-12-25T20:27:00.296Z,18.10
2018-12-25T20:29:33.169Z,15.93
2018-12-25T20:32:05.887Z,15.03
2018-12-25T20:34:50.790Z,15.50
2018-12-25T20:37:29.458Z,15.50
2018-12-25T20:40:17.394Z,15.97
2018-12-25T20:43:02.305Z,17.10
2018-12-25T20:45:40.894Z,15.70
2018-12-25T20:48:13.423Z,15.33
2018-12-25T20:51:01.306Z,15.83
2018-12-25T20:53:39.633Z,17.50
2018-12-25T20:56:27.382Z,16.13
2018-12-25T20:58:57.206Z,19.50
2018-12-25T21:01:32.648Z,16.23
2018-12-25T21:04:05.159Z,19.70
2018-12-25T21:06:51.254Z,18.07
2018-12-25T21:09:37.758Z,15.63
2018-12-25T21:12:19.632Z,15.90
2018-12-25T21:14:58.301Z,19.80
2018-12-25T21:17:36.733Z,15.00
2018-12-25T21:20:15.218Z,21.00
2018-12-25T21:23:01.218Z,14.23
2018-12-25T21:25:47.563Z,16.53
2018-12-25T21:28:15.297Z,18.80
2018-12-25T21:30:43.687Z,16.03
2018-12-25T21:33:12.026Z,16.70
2018-12-25T21:35:40.289Z,15.07
2018-12-25T21:38:08.682Z,15.20
2018-12-25T21:40:37.018Z,15.07
2018-12-25T21:43:05.810Z,15.83
2018-12-25T21:45:34.158Z,17.17
2018-12-25T21:48:02.520Z,15.97
2018-12-25T21:50:30.870Z,16.97
2018-12-25T21:52:59.157Z,17.13
2018-12-25T21:55:27.420Z,15.43
2018-12-25T21:57:55.893Z,15.07
2018-12-25T22:00:24.161Z,15.93
2018-12-25T22:02:52.890Z,15.80
2018-12-25T22:05:21.229Z,16.03
2018-12-25T22:07:49.508Z,17.10
2018-12-25T22:10:17.963Z,14.10
2018-12-25T22:12:46.258Z,14.10
2018-12-25T22:15:14.472Z,13.70
2018-12-25T22:17:43.089Z,14.30
2018-12-25T22:20:12.916Z,14.50
2018-12-25T22:22:41.494Z,14.80
2018-12-25T22:25:09.770Z,13.70
2018-12-25T22:27:38.061Z,14.57
2018-12-25T22:30:06.329Z,14.00
2018-12-25T22:32:34.558Z,14.47
2018-12-25T22:35:03.162Z,13.70
2018-12-25T22:37:31.458Z,15.20
2018-12-25T22:39:59.742Z,13.93
2018-12-25T22:42:28.030Z,16.40
2018-12-25T22:44:56.232Z,15.00
2018-12-25T22:47:24.514Z,15.40
2018-12-25T22:49:52.713Z,13.20
2018-12-25T22:52:20.922Z,14.03
2018-12-25T22:54:49.215Z,13.93
2018-12-25T22:57:17.479Z,14.60
2018-12-25T22:59:45.771Z,13.63
2018-12-25T23:02:14.046Z,14.03
2018-12-25T23:04:42.338Z,14.20
2018-12-25T23:07:10.534Z,13.80
2018-12-25T23:09:38.822Z,13.57
2018-12-25T23:12:07.022Z,15.10
2018-12-25T23:14:35.316Z,16.07
2018-12-25T23:17:03.513Z,15.10
2018-12-25T23:19:31.802Z,15.90
2018-12-25T23:22:00.078Z,15.50
2018-12-25T23:24:28.362Z,15.67
2018-12-25T23:26:56.562Z,16.13
2018-12-25T23:29:24.854Z,17.23
2018-12-25T23:31:53.124Z,17.30
2018-12-25T23:34:21.413Z,20.60
2018-12-25T23:36:49.614Z,15.83
2018-12-25T23:39:17.911Z,15.63
2018-12-25T23:41:46.190Z,15.53
2018-12-25T23:44:14.477Z,16.93
2018-12-25T23:46:42.670Z,16.40
2018-12-25T23:49:10.967Z,18.23
2018-12-25T23:51:39.246Z,17.97
2018-12-25T23:54:07.993Z,15.80
2018-12-25T23:56:36.271Z,20.23
2018-12-25T23:59:04.586Z,17.20
